createdAt,value
2023-12-21T00:01:34.195Z,100627.31
2023-12-21T00:04:01.113Z,100624.47
2023-12-21T00:06:27.711Z,100619.97
2023-12-21T00:08:54.347Z,100617.28
2023-12-21T00:11:21.213Z,100605.91
2023-12-21T00:13:47.724Z,100600.53
2023-12-21T00:16:14.921Z,100605.56
2023-12-21T00:18:41.555Z,100593.44
2023-12-21T00:21:08.255Z,100587.38
2023-12-21T00:23:35.565Z,100589.78
2023-12-21T00:26:02.238Z,100582.72
2023-12-21T00:28:28.840Z,100579.19
2023-12-21T00:30:55.531Z,100566.97
2023-12-21T00:33:23.161Z,100575.72
2023-12-21T00:35:49.740Z,100560.06
2023-12-21T00:38:16.331Z,100556.53
2023-12-21T00:40:42.928Z,100554.78
2023-12-21T00:43:09.527Z,100552.16
2023-12-21T00:45:36.066Z,100546.72
2023-12-21T00:48:02.686Z,100543.41
2023-12-21T00:50:29.408Z,100538.19
2023-12-21T00:52:56.000Z,100530.41
2023-12-21T00:55:22.705Z,100516.47
2023-12-21T00:57:49.426Z,100517.28
2023-12-21T01:00:16.250Z,100514.69
2023-12-21T01:02:42.781Z,100503.31
2023-12-21T01:05:09.288Z,100497.13
2023-12-21T01:07:36.013Z,100494.44
2023-12-21T01:10:02.654Z,100486.50
2023-12-21T01:12:33.545Z,100497.91
2023-12-21T01:15:01.479Z,100486.69
2023-12-21T01:17:28.445Z,100496.94
2023-12-21T01:19:55.057Z,100495.09
2023-12-21T01:22:21.732Z,100486.44
2023-12-21T01:24:48.312Z,100482.25
2023-12-21T01:27:22.214Z,100480.47
2023-12-21T01:29:56.825Z,100478.69
2023-12-21T01:32:23.340Z,100483.72
2023-12-21T01:34:49.943Z,100476.81
2023-12-21T01:37:16.564Z,100465.56
2023-12-21T01:39:43.124Z,100445.50
2023-12-21T01:42:09.586Z,100450.63
2023-12-21T01:44:36.134Z,100446.03
2023-12-21T01:47:03.362Z,100446.78
2023-12-21T01:49:30.211Z,100437.38
2023-12-21T01:51:57.347Z,100455.56
2023-12-21T01:54:24.258Z,100467.69
2023-12-21T01:56:50.924Z,100448.47
2023-12-21T01:59:18.074Z,100461.25
2023-12-21T02:01:44.698Z,100462.06
2023-12-21T02:04:11.784Z,100442.03
2023-12-21T02:06:41.321Z,100442.97
2023-12-21T02:09:08.423Z,100437.81
2023-12-21T02:11:35.078Z,100426.56
2023-12-21T02:14:01.714Z,100423.84
2023-12-21T02:16:37.662Z,100421.31
2023-12-21T02:19:06.067Z,100412.78
2023-12-21T02:21:35.307Z,100413.50
2023-12-21T02:24:04.605Z,100395.13
2023-12-21T02:26:31.313Z,100396.69
2023-12-21T02:28:57.951Z,100389.81
2023-12-21T02:31:24.542Z,100386.38
2023-12-21T02:33:51.125Z,100387.13
2023-12-21T02:36:17.678Z,100389.72
2023-12-21T02:38:44.219Z,100374.97
2023-12-21T02:41:10.825Z,100371.44
2023-12-21T02:43:37.420Z,100376.88
2023-12-21T02:46:04.149Z,100377.78
2023-12-21T02:48:31.986Z,100381.22
2023-12-21T02:50:58.442Z,100380.19
2023-12-21T02:53:25.104Z,100369.75
2023-12-21T02:55:51.698Z,100368.09
2023-12-21T02:58:18.441Z,100360.34
2023-12-21T03:00:45.426Z,100350.75
2023-12-21T03:03:12.038Z,100341.97
2023-12-21T03:05:38.549Z,100327.97
2023-12-21T03:08:05.327Z,100320.78
2023-12-21T03:10:31.930Z,100293.75
2023-12-21T03:12:59.207Z,100282.44
2023-12-21T03:15:25.854Z,100260.66
2023-12-21T03:17:53.596Z,100267.53
2023-12-21T03:20:20.290Z,100268.28
2023-12-21T03:22:47.114Z,100263.91
2023-12-21T03:25:13.958Z,100259.50
2023-12-21T03:27:40.549Z,100258.66
2023-12-21T03:30:07.941Z,100242.06
2023-12-21T03:32:34.592Z,100238.63
2023-12-21T03:35:01.310Z,100236.94
2023-12-21T03:37:28.598Z,100239.56
2023-12-21T03:39:57.227Z,100251.78
2023-12-21T03:42:23.931Z,100238.63
2023-12-21T03:44:50.557Z,100235.88
2023-12-21T03:47:17.202Z,100238.63
2023-12-21T03:49:43.758Z,100238.72
2023-12-21T03:52:10.357Z,100233.50
2023-12-21T03:54:37.005Z,100236.94
2023-12-21T03:57:03.808Z,100228.16
2023-12-21T03:59:30.759Z,100216.06
2023-12-21T04:01:58.342Z,100201.44
2023-12-21T04:04:28.280Z,100197.03
2023-12-21T04:06:55.526Z,100190.16
2023-12-21T04:09:22.186Z,100189.41
2023-12-21T04:11:48.708Z,100186.09
2023-12-21T04:14:15.292Z,100170.50
2023-12-21T04:16:41.789Z,100155.69
2023-12-21T04:19:09.311Z,100148.88
2023-12-21T04:21:36.028Z,100125.31
2023-12-21T04:24:02.678Z,100125.19
2023-12-21T04:26:29.171Z,100115.38
2023-12-21T04:28:55.677Z,100109.22
2023-12-21T04:31:23.613Z,100094.47
2023-12-21T04:33:52.806Z,100105.78
2023-12-21T04:36:23.564Z,100090.84
2023-12-21T04:38:52.536Z,100075.06
2023-12-21T04:41:19.105Z,100073.38
2023-12-21T04:43:45.669Z,100076.72
2023-12-21T04:46:12.292Z,100075.78
2023-12-21T04:48:38.998Z,100080.72
2023-12-21T04:51:05.607Z,100081.31
2023-12-21T04:53:32.272Z,100075.28
2023-12-21T04:55:58.878Z,100084.84
2023-12-21T04:58:25.483Z,100091.78
2023-12-21T05:00:52.193Z,100081.13
2023-12-21T05:03:20.736Z,100070.66
2023-12-21T05:05:48.349Z,100050.69
2023-12-21T05:08:15.999Z,100064.72
2023-12-21T05:10:42.808Z,100050.00
2023-12-21T05:13:09.562Z,100032.84
2023-12-21T05:15:36.157Z,100031.19
2023-12-21T05:18:03.577Z,100033.78
2023-12-21T05:20:30.378Z,100025.97
2023-12-21T05:23:00.308Z,100028.47
2023-12-21T05:25:27.657Z,100029.31
2023-12-21T05:27:54.524Z,100027.88
2023-12-21T05:30:21.856Z,100044.47
2023-12-21T05:32:49.356Z,100037.78
2023-12-21T05:35:16.608Z,100032.69
2023-12-21T05:37:43.363Z,100032.06
2023-12-21T05:40:11.245Z,100037.50
2023-12-21T05:42:38.338Z,100035.81
2023-12-21T05:45:05.528Z,100018.50
2023-12-21T05:47:33.241Z,100010.78
2023-12-21T05:50:00.284Z,100014.31
2023-12-21T05:52:27.142Z,100032.69
2023-12-21T05:54:53.804Z,100011.09
2023-12-21T05:57:20.341Z,100011.19
2023-12-21T05:59:46.820Z,100012.88
2023-12-21T06:02:13.679Z,100022.47
2023-12-21T06:04:40.344Z,100012.88
2023-12-21T06:09:33.624Z,99994.72
2023-12-21T06:12:00.262Z,99981.66
2023-12-21T06:14:26.802Z,99985.94
2023-12-21T06:16:53.442Z,99979.97
2023-12-21T06:19:20.049Z,99951.25
2023-12-21T06:21:46.630Z,99933.00
2023-12-21T06:24:13.168Z,99937.28
2023-12-21T06:26:43.447Z,99950.22
2023-12-21T06:29:10.976Z,99931.13
2023-12-21T06:31:37.793Z,99928.50
2023-12-21T06:34:04.727Z,99910.34
2023-12-21T06:36:33.733Z,99922.47
2023-12-21T06:39:00.386Z,99893.84
2023-12-21T06:41:27.025Z,99883.53
2023-12-21T06:43:53.667Z,99885.31
2023-12-21T06:46:21.942Z,99885.31
2023-12-21T06:48:48.631Z,99871.19
2023-12-21T06:51:15.258Z,99874.41
2023-12-21T06:53:41.830Z,99861.34
2023-12-21T06:56:23.540Z,99862.09
2023-12-21T06:58:56.984Z,99845.38
2023-12-21T07:01:27.521Z,99833.03
2023-12-21T07:03:55.097Z,99839.81
2023-12-21T07:06:21.945Z,99826.75
2023-12-21T07:08:48.879Z,99811.00
2023-12-21T07:11:15.533Z,99812.53
2023-12-21T07:13:42.135Z,99806.16
2023-12-21T07:16:10.965Z,99794.91
2023-12-21T07:18:38.050Z,99790.00
2023-12-21T07:21:05.306Z,99795.66
2023-12-21T07:23:32.032Z,99799.44
2023-12-21T07:25:58.861Z,99796.97
2023-12-21T07:28:26.889Z,99782.34
2023-12-21T07:30:53.526Z,99806.91
2023-12-21T07:33:20.202Z,99788.84
2023-12-21T07:35:46.996Z,99786.38
2023-12-21T07:38:13.797Z,99783.84
2023-12-21T07:40:40.366Z,99769.16
2023-12-21T07:43:06.988Z,99782.19
2023-12-21T07:45:33.588Z,99756.22
2023-12-21T07:48:00.264Z,99778.25
2023-12-21T07:50:28.438Z,99778.25
2023-12-21T07:52:57.651Z,99783.38
2023-12-21T07:55:24.795Z,99796.50
2023-12-21T07:57:51.569Z,99783.47
2023-12-21T08:00:18.535Z,99792.13
2023-12-21T08:02:48.442Z,99789.41
2023-12-21T08:05:16.287Z,99761.53
2023-12-21T08:07:43.179Z,99789.28
2023-12-21T08:10:10.115Z,99789.28
2023-12-21T08:12:36.818Z,99763.19
2023-12-21T08:15:04.433Z,99759.75
2023-12-21T08:17:31.741Z,99735.22
2023-12-21T08:19:58.310Z,99738.56
2023-12-21T08:22:25.033Z,99749.94
2023-12-21T08:24:52.772Z,99747.09
2023-12-21T08:27:22.040Z,99730.38
2023-12-21T08:29:48.540Z,99704.28
2023-12-21T08:32:15.132Z,99717.22
2023-12-21T08:34:41.898Z,99730.25
2023-12-21T08:37:08.481Z,99712.84
2023-12-21T08:39:35.020Z,99719.72
2023-12-21T08:42:02.440Z,99710.94
2023-12-21T08:44:30.567Z,99706.22
2023-12-21T08:46:58.394Z,99705.03
2023-12-21T08:49:25.015Z,99713.81
2023-12-21T08:51:53.548Z,99694.59
2023-12-21T08:54:20.055Z,99693.63
2023-12-21T08:56:47.073Z,99673.50
2023-12-21T08:59:13.835Z,99684.63
2023-12-21T09:01:40.378Z,99687.72
2023-12-21T09:04:07.109Z,99676.81
2023-12-21T09:06:33.900Z,99674.81
2023-12-21T09:09:00.478Z,99664.00
2023-12-21T09:11:27.411Z,99667.94
2023-12-21T09:13:53.876Z,99681.72
2023-12-21T09:16:20.577Z,99655.34
2023-12-21T09:18:47.441Z,99665.09
2023-12-21T09:21:14.344Z,99650.25
2023-12-21T09:23:43.130Z,99666.75
2023-12-21T09:26:10.272Z,99650.97
2023-12-21T09:28:38.118Z,99664.72
2023-12-21T09:31:08.628Z,99642.75
2023-12-21T09:33:35.621Z,99629.22
2023-12-21T09:36:02.273Z,99647.03
2023-12-21T09:38:28.819Z,99655.47
2023-12-21T09:40:57.417Z,99651.53
2023-12-21T09:43:24.196Z,99645.13
2023-12-21T09:45:54.418Z,99647.38
2023-12-21T09:48:24.474Z,99663.78
2023-12-21T09:50:52.412Z,99652.47
2023-12-21T09:53:20.165Z,99641.53
2023-12-21T09:55:48.151Z,99637.84
2023-12-21T09:58:15.224Z,99657.78
2023-12-21T10:00:42.148Z,99632.25
2023-12-21T10:03:08.894Z,99639.72
2023-12-21T10:05:35.815Z,99640.06
2023-12-21T10:08:03.735Z,99641.97
2023-12-21T10:10:30.420Z,99657.19
2023-12-21T10:12:57.161Z,99627.59
2023-12-21T10:15:23.637Z,99627.50
2023-12-21T10:17:51.673Z,99621.31
2023-12-21T10:20:19.315Z,99631.41
2023-12-21T10:22:46.624Z,99641.59
2023-12-21T10:25:14.199Z,99629.22
2023-12-21T10:27:41.898Z,99618.28
2023-12-21T10:30:09.329Z,99630.63
2023-12-21T10:32:36.359Z,99604.94
2023-12-21T10:35:02.988Z,99614.44
2023-12-21T10:37:29.752Z,99615.16
2023-12-21T10:39:57.388Z,99619.41
2023-12-21T10:42:24.387Z,99622.75
2023-12-21T10:44:51.724Z,99609.69
2023-12-21T10:47:19.262Z,99610.38
2023-12-21T10:49:46.285Z,99595.47
2023-12-21T10:52:13.812Z,99588.47
2023-12-21T10:54:43.826Z,99588.97
2023-12-21T10:57:11.210Z,99591.72
2023-12-21T10:59:38.269Z,99600.63
2023-12-21T11:02:05.109Z,99587.69
2023-12-21T11:04:32.532Z,99596.22
2023-12-21T11:07:00.466Z,99618.69
2023-12-21T11:09:32.736Z,99578.84
2023-12-21T11:11:59.765Z,99578.34
2023-12-21T11:14:26.804Z,99592.47
2023-12-21T11:17:00.042Z,99564.78
2023-12-21T11:19:31.628Z,99574.56
2023-12-21T11:21:58.780Z,99585.25
2023-12-21T11:24:25.934Z,99573.38
2023-12-21T11:26:53.277Z,99590.97
2023-12-21T11:29:25.291Z,99563.28
2023-12-21T11:31:52.830Z,99557.94
2023-12-21T11:34:20.704Z,99559.13
2023-12-21T11:36:49.922Z,99548.41
2023-12-21T11:39:20.628Z,99550.88
2023-12-21T11:41:58.771Z,99557.19
2023-12-21T11:44:34.720Z,99554.56
2023-12-21T11:47:01.532Z,99573.56
2023-12-21T11:49:31.087Z,99552.16
2023-12-21T11:51:57.815Z,99557.50
2023-12-21T11:54:25.297Z,99556.53
2023-12-21T11:56:53.673Z,99549.34
2023-12-21T11:59:24.387Z,99571.75
2023-12-21T12:01:52.129Z,99551.16
2023-12-21T12:04:18.742Z,99549.13
2023-12-21T12:06:47.542Z,99514.63
2023-12-21T12:09:14.117Z,99530.13
2023-12-21T12:11:40.899Z,99541.28
2023-12-21T12:14:10.090Z,99536.44
2023-12-21T12:16:38.515Z,99537.50
2023-12-21T12:19:06.004Z,99538.72
2023-12-21T12:21:32.951Z,99545.69
2023-12-21T12:23:59.686Z,99548.81
2023-12-21T12:26:26.361Z,99532.69
2023-12-21T12:28:54.811Z,99539.22
2023-12-21T12:31:21.635Z,99532.44
2023-12-21T12:33:48.701Z,99519.00
2023-12-21T12:36:20.268Z,99538.34
2023-12-21T12:38:47.306Z,99518.28
2023-12-21T12:41:25.459Z,99524.06
2023-12-21T12:43:53.046Z,99530.44
2023-12-21T12:46:21.815Z,99517.44
2023-12-21T12:48:49.409Z,99531.34
2023-12-21T12:51:16.511Z,99509.44
2023-12-21T12:53:44.048Z,99511.75
2023-12-21T12:56:12.161Z,99505.69
2023-12-21T12:58:52.928Z,99530.63
2023-12-21T13:01:28.134Z,99510.22
2023-12-21T13:03:56.114Z,99528.78
2023-12-21T13:06:22.791Z,99531.53
2023-12-21T13:08:49.486Z,99549.97
2023-12-21T13:11:17.233Z,99530.41
2023-12-21T13:13:44.143Z,99522.13
2023-12-21T13:16:10.640Z,99538.88
2023-12-21T13:18:38.250Z,99531.03
2023-12-21T13:21:04.940Z,99547.44
2023-12-21T13:23:32.589Z,99532.19
2023-12-21T13:25:59.263Z,99547.19
2023-12-21T13:28:26.043Z,99549.91
2023-12-21T13:30:52.639Z,99538.38
2023-12-21T13:33:19.781Z,99564.53
2023-12-21T13:35:46.760Z,99548.47
2023-12-21T13:38:13.323Z,99557.03
2023-12-21T13:40:39.984Z,99536.13
2023-12-21T13:43:06.549Z,99553.47
2023-12-21T13:45:34.065Z,99546.19
2023-12-21T13:48:00.583Z,99545.38
2023-12-21T13:50:27.164Z,99527.88
2023-12-21T13:52:55.389Z,99545.81
2023-12-21T13:55:22.280Z,99556.53
2023-12-21T13:57:49.236Z,99556.78
2023-12-21T14:00:16.119Z,99566.19
2023-12-21T14:02:42.813Z,99553.22
2023-12-21T14:05:09.632Z,99560.94
2023-12-21T14:07:36.337Z,99553.34
2023-12-21T14:10:03.651Z,99552.63
2023-12-21T14:12:32.184Z,99549.06
2023-12-21T14:14:59.547Z,99561.44
2023-12-21T14:17:26.924Z,99570.84
2023-12-21T14:19:54.034Z,99569.03
2023-12-21T14:22:20.616Z,99557.63
2023-12-21T14:24:47.140Z,99553.22
2023-12-21T14:27:16.819Z,99567.25
2023-12-21T14:29:43.347Z,99557.88
2023-12-21T14:32:09.859Z,99565.34
2023-12-21T14:34:36.459Z,99577.22
2023-12-21T14:37:03.238Z,99579.84
2023-12-21T14:39:29.792Z,99568.91
2023-12-21T14:41:56.309Z,99559.16
2023-12-21T14:44:22.874Z,99576.75
2023-12-21T14:46:50.581Z,99577.25
2023-12-21T14:49:17.178Z,99558.47
2023-12-21T14:51:44.398Z,99571.56
2023-12-21T14:54:10.965Z,99575.88
2023-12-21T14:56:37.984Z,99572.69
2023-12-21T14:59:04.441Z,99577.91
2023-12-21T15:01:32.139Z,99595.38
2023-12-21T15:03:59.851Z,99572.53
2023-12-21T15:06:26.612Z,99581.53
2023-12-21T15:08:53.522Z,99581.44
2023-12-21T15:11:20.365Z,99580.97
2023-12-21T15:13:47.125Z,99588.94
2023-12-21T15:16:13.765Z,99578.25
2023-12-21T15:18:40.936Z,99572.06
2023-12-21T15:21:10.293Z,99610.56
2023-12-21T15:23:36.730Z,99573.38
2023-12-21T15:26:06.683Z,99591.22
2023-12-21T15:28:33.966Z,99594.53
2023-12-21T15:31:00.595Z,99621.28
2023-12-21T15:33:27.213Z,99624.00
2023-12-21T15:35:53.996Z,99634.47
2023-12-21T15:38:20.656Z,99646.81
2023-12-21T15:40:47.308Z,99652.91
2023-12-21T15:43:14.145Z,99644.47
2023-12-21T15:45:44.574Z,99656.81
2023-12-21T15:48:11.945Z,99652.03
2023-12-21T15:50:38.692Z,99645.31
2023-12-21T15:53:06.047Z,99672.13
2023-12-21T15:55:33.564Z,99646.00
2023-12-21T15:58:00.139Z,99655.19
2023-12-21T16:00:26.789Z,99655.75
2023-12-21T16:02:55.103Z,99652.75
2023-12-21T16:05:21.798Z,99641.34
2023-12-21T16:07:48.488Z,99656.59
2023-12-21T16:10:15.977Z,99646.16
2023-12-21T16:12:43.902Z,99649.84
2023-12-21T16:15:10.845Z,99675.38
2023-12-21T16:17:37.478Z,99677.03
2023-12-21T16:20:06.508Z,99681.94
2023-12-21T16:22:33.086Z,99674.41
2023-12-21T16:24:59.708Z,99658.22
2023-12-21T16:27:26.665Z,99647.41
2023-12-21T16:29:53.311Z,99646.28
2023-12-21T16:32:20.436Z,99652.47
2023-12-21T16:34:47.203Z,99672.31
2023-12-21T16:37:13.775Z,99666.44
2023-12-21T16:39:40.357Z,99665.97
2023-12-21T16:42:06.909Z,99666.84
2023-12-21T16:44:33.326Z,99677.53
2023-12-21T16:46:59.991Z,99654.03
2023-12-21T16:49:29.079Z,99664.78
2023-12-21T16:51:55.644Z,99679.38
2023-12-21T16:54:22.353Z,99682.34
2023-12-21T16:56:51.573Z,99687.94
2023-12-21T16:59:18.205Z,99663.28
2023-12-21T17:01:44.822Z,99665.88
2023-12-21T17:04:11.471Z,99772.91
2023-12-21T17:06:38.058Z,99815.91
2023-12-21T17:09:05.664Z,99853.50
2023-12-21T17:11:32.189Z,99857.00
2023-12-21T17:13:58.635Z,99878.03
2023-12-21T17:16:25.586Z,99894.91
2023-12-21T17:18:54.566Z,99898.78
2023-12-21T17:21:21.792Z,99896.53
2023-12-21T17:23:48.435Z,99866.63
2023-12-21T17:26:15.048Z,99865.06
2023-12-21T17:28:42.472Z,99865.25
2023-12-21T17:31:09.804Z,99862.19
2023-12-21T17:33:36.511Z,99838.34
2023-12-21T17:36:04.300Z,99850.84
2023-12-21T17:38:31.283Z,99824.31
2023-12-21T17:40:58.005Z,99838.41
2023-12-21T17:43:24.857Z,99839.03
2023-12-21T17:45:51.651Z,99845.25
2023-12-21T17:48:19.468Z,99834.13
2023-12-21T17:50:46.856Z,99840.22
2023-12-21T17:53:14.005Z,99846.28
2023-12-21T17:55:41.931Z,99850.59
2023-12-21T17:58:08.916Z,99870.28
2023-12-21T18:00:35.601Z,99866.50
2023-12-21T18:03:02.468Z,99893.22
2023-12-21T18:05:29.199Z,99888.66
2023-12-21T18:07:55.929Z,99901.13
2023-12-21T18:10:23.358Z,99902.63
2023-12-21T18:12:51.734Z,99895.59
2023-12-21T18:15:18.675Z,99894.47
2023-12-21T18:17:47.283Z,99908.94
2023-12-21T18:20:17.436Z,99913.94
2023-12-21T18:22:44.312Z,99910.41
2023-12-21T18:25:11.163Z,99913.03
2023-12-21T18:27:37.804Z,99900.03
2023-12-21T18:30:05.826Z,99882.63
2023-12-21T18:32:32.680Z,99872.88
2023-12-21T18:34:59.500Z,99864.19
2023-12-21T18:37:26.148Z,99870.69
2023-12-21T18:39:52.659Z,99893.03
2023-12-21T18:42:19.099Z,99896.09
2023-12-21T18:44:45.756Z,99907.97
2023-12-21T18:47:12.592Z,99924.63
2023-12-21T18:49:40.650Z,99913.09
2023-12-21T18:52:07.200Z,99917.94
2023-12-21T18:54:33.957Z,99909.78
2023-12-21T18:57:02.298Z,99930.47
2023-12-21T18:59:28.896Z,99927.38
2023-12-21T19:01:55.558Z,99934.66
2023-12-21T19:04:22.273Z,99935.94
2023-12-21T19:06:48.959Z,99943.94
2023-12-21T19:09:15.637Z,99946.16
2023-12-21T19:11:42.072Z,99945.97
2023-12-21T19:14:08.604Z,99939.84
2023-12-21T19:16:35.147Z,99947.72
2023-12-21T19:19:01.772Z,99958.31
2023-12-21T19:21:28.331Z,99958.97
2023-12-21T19:23:55.078Z,99968.06
2023-12-21T19:26:21.855Z,99961.94
2023-12-21T19:28:48.785Z,99961.75
2023-12-21T19:31:19.529Z,99975.09
2023-12-21T19:33:46.499Z,99972.44
2023-12-21T19:36:17.653Z,99976.81
2023-12-21T19:38:48.602Z,99977.44
2023-12-21T19:41:15.187Z,99984.50
2023-12-21T19:43:41.847Z,99979.28
2023-12-21T19:46:08.550Z,99978.47
2023-12-21T19:48:36.850Z,99992.41
2023-12-21T19:51:03.682Z,99977.53
2023-12-21T19:53:30.332Z,99991.28
2023-12-21T19:55:57.114Z,99997.03
2023-12-21T19:58:23.699Z,99993.31
2023-12-21T20:00:50.245Z,99993.50
2023-12-21T20:03:16.814Z,99982.66
2023-12-21T20:05:43.408Z,99982.00
2023-12-21T20:08:10.557Z,99979.41
2023-12-21T20:10:38.463Z,99977.72
2023-12-21T20:13:05.375Z,99984.31
2023-12-21T20:15:31.958Z,99991.00
2023-12-21T20:17:58.713Z,99981.72
2023-12-21T20:20:27.437Z,99985.34
2023-12-21T20:22:57.262Z,99988.66
2023-12-21T20:25:24.171Z,99995.72
2023-12-21T20:27:52.441Z,100013.34
2023-12-21T20:30:19.241Z,100000.94
2023-12-21T20:32:48.652Z,100009.75
2023-12-21T20:35:16.906Z,100003.72
2023-12-21T20:37:43.624Z,100008.19
2023-12-21T20:40:11.039Z,100006.13
2023-12-21T20:42:37.659Z,99996.66
2023-12-21T20:45:04.601Z,100003.34
2023-12-21T20:47:31.320Z,100010.97
2023-12-21T20:49:57.999Z,100020.06
2023-12-21T20:52:24.571Z,100039.56
2023-12-21T20:54:52.370Z,100039.75
2023-12-21T20:57:18.912Z,100044.59
2023-12-21T20:59:45.874Z,100057.59
2023-12-21T21:02:12.697Z,100041.91
2023-12-21T21:04:39.741Z,100033.91
2023-12-21T21:07:06.507Z,100051.38
2023-12-21T21:09:33.413Z,100071.34
2023-12-21T21:12:00.345Z,100175.09
2023-12-21T21:14:27.211Z,100173.31
2023-12-21T21:16:54.163Z,100136.13
2023-12-21T21:19:20.956Z,100128.47
2023-12-21T21:21:47.612Z,100121.78
2023-12-21T21:24:14.184Z,100133.78
2023-12-21T21:26:40.688Z,100113.50
2023-12-21T21:29:07.313Z,100105.16
2023-12-21T21:31:36.880Z,100119.00
2023-12-21T21:34:04.323Z,100124.28
2023-12-21T21:36:31.320Z,100123.34
2023-12-21T21:38:58.026Z,100138.06
2023-12-21T21:41:24.603Z,100144.09
2023-12-21T21:43:51.228Z,100154.09
2023-12-21T21:46:17.821Z,100137.63
2023-12-21T21:48:44.536Z,100136.53
2023-12-21T21:51:14.139Z,100126.63
2023-12-21T21:53:42.883Z,100124.78
2023-12-21T21:56:09.462Z,100114.56
2023-12-21T21:58:36.564Z,100125.88
2023-12-21T22:01:07.750Z,100140.66
2023-12-21T22:03:35.362Z,100134.78
2023-12-21T22:06:03.414Z,100136.53
2023-12-21T22:08:31.452Z,100134.88
2023-12-21T22:10:58.826Z,100135.63
2023-12-21T22:13:27.126Z,100148.59
2023-12-21T22:15:53.894Z,100142.56
2023-12-21T22:18:20.768Z,100149.34
2023-12-21T22:20:48.112Z,100134.78
2023-12-21T22:23:14.706Z,100137.31
2023-12-21T22:25:41.616Z,100145.84
2023-12-21T22:28:08.181Z,100137.00
2023-12-21T22:30:35.640Z,100145.53
2023-12-21T22:33:03.917Z,100159.94
2023-12-21T22:35:31.820Z,100150.47
2023-12-21T22:37:58.538Z,100155.66
2023-12-21T22:40:25.461Z,100157.56
2023-12-21T22:42:52.250Z,100159.84
2023-12-21T22:45:19.666Z,100164.31
2023-12-21T22:47:46.537Z,100165.97
2023-12-21T22:50:13.738Z,100180.59
2023-12-21T22:52:40.532Z,100184.03
2023-12-21T22:55:07.692Z,100192.69
2023-12-21T22:57:35.134Z,100181.28
2023-12-21T23:00:12.635Z,100182.06
2023-12-21T23:02:42.450Z,100186.56
2023-12-21T23:05:10.277Z,100189.22
2023-12-21T23:07:39.819Z,100207.16
2023-12-21T23:10:08.200Z,100205.31
2023-12-21T23:12:34.906Z,100198.16
2023-12-21T23:15:01.763Z,100200.59
2023-12-21T23:17:28.401Z,100200.50
2023-12-21T23:19:55.287Z,100200.50
2023-12-21T23:22:22.188Z,100206.50
2023-12-21T23:24:50.255Z,100188.03
2023-12-21T23:27:17.404Z,100178.44
2023-12-21T23:29:57.393Z,100183.69
2023-12-21T23:32:31.883Z,100173.97
2023-12-21T23:35:08.732Z,100180.94
2023-12-21T23:37:47.513Z,100175.00
2023-12-21T23:40:15.357Z,100183.31
2023-12-21T23:42:42.130Z,100174.50
2023-12-21T23:45:09.389Z,100174.28
2023-12-21T23:47:36.472Z,100183.72
2023-12-21T23:50:03.740Z,100177.56
2023-12-21T23:52:30.494Z,100186.84
2023-12-21T23:54:56.963Z,100189.38
2023-12-21T23:57:23.407Z,100201.59
2023-12-21T23:59:52.328Z,100202.66
